createdAt,value
2018-04-11T10:03:54.302Z,38.11
2018-04-11T10:04:57.981Z,38.02
2018-04-11T10:06:01.523Z,37.80
2018-04-11T10:07:05.045Z,37.79
2018-04-11T10:08:08.607Z,37.50
2018-04-11T10:09:13.351Z,37.45
2018-04-11T10:10:16.904Z,37.45
2018-04-11T10:11:21.051Z,37.46
2018-04-11T10:12:24.558Z,37.62
2018-04-11T10:13:28.087Z,37.52
2018-04-11T10:14:31.644Z,37.37
2018-04-11T10:15:35.209Z,37.54
2018-04-11T10:16:38.768Z,37.55
2018-04-11T10:17:42.361Z,37.54
2018-04-11T10:18:47.184Z,37.53
2018-04-11T10:19:50.735Z,37.97
2018-04-11T10:20:54.738Z,38.13
2018-04-11T10:21:58.345Z,38.11
2018-04-11T10:23:01.858Z,37.83
2018-04-11T10:24:05.385Z,37.86
2018-04-11T10:25:08.872Z,37.79
2018-04-11T10:26:12.357Z,37.57
2018-04-11T10:27:16.413Z,37.76
2018-04-11T10:28:19.953Z,37.70
2018-04-11T10:29:23.540Z,37.63
2018-04-11T10:30:27.081Z,37.71
2018-04-11T10:31:30.676Z,37.61
2018-04-11T10:32:34.258Z,37.61
2018-04-11T10:33:38.175Z,37.52
2018-04-11T10:34:41.809Z,37.67
2018-04-11T10:35:45.350Z,37.59
2018-04-11T10:36:49.010Z,37.59
2018-04-11T10:37:52.533Z,37.52
2018-04-11T10:38:56.075Z,37.53
2018-04-11T10:40:00.106Z,37.54
2018-04-11T10:41:03.656Z,37.55
2018-04-11T10:42:07.207Z,37.56
2018-04-11T10:43:10.839Z,37.58
2018-04-11T10:44:14.435Z,37.67
2018-04-11T10:45:18.155Z,37.80
2018-04-11T10:46:22.102Z,37.82
2018-04-11T10:47:25.709Z,37.75
2018-04-11T10:48:29.258Z,37.85
2018-04-11T10:49:32.735Z,37.94
2018-04-11T10:50:36.302Z,37.89
2018-04-11T10:51:39.834Z,37.88
2018-04-11T10:52:43.712Z,37.85
2018-04-11T10:53:47.336Z,37.96
2018-04-11T10:54:50.901Z,37.79
2018-04-11T10:55:54.433Z,37.74
2018-04-11T10:56:58.287Z,37.73
2018-04-11T10:58:01.840Z,37.68
2018-04-11T10:59:05.745Z,37.79
2018-04-11T11:00:09.288Z,37.78
2018-04-11T11:01:12.986Z,37.83
2018-04-11T11:02:16.712Z,38.03
2018-04-11T11:03:20.276Z,37.90
2018-04-11T11:04:23.817Z,37.94
2018-04-11T11:05:27.799Z,37.89
2018-04-11T11:06:31.428Z,38.10
2018-04-11T11:07:34.984Z,37.91
2018-04-11T11:08:38.477Z,38.07
2018-04-11T11:09:42.029Z,38.04
2018-04-11T11:10:45.658Z,38.00
2018-04-11T11:11:49.551Z,37.89
2018-04-11T11:12:53.213Z,38.06
2018-04-11T11:13:56.708Z,37.99
2018-04-11T11:15:00.249Z,37.88
2018-04-11T11:16:03.787Z,37.69
2018-04-11T11:17:07.324Z,37.66
2018-04-11T11:18:11.271Z,37.93
2018-04-11T11:19:14.842Z,37.72
2018-04-11T11:20:18.301Z,37.71
2018-04-11T11:21:21.689Z,37.67
2018-04-11T11:22:25.200Z,37.73
2018-04-11T11:23:28.626Z,37.83
2018-04-11T11:24:32.583Z,37.85
2018-04-11T11:25:36.233Z,37.96
2018-04-11T11:26:39.883Z,37.87
2018-04-11T11:27:43.567Z,37.83
2018-04-11T11:28:47.328Z,37.82
2018-04-11T11:29:50.952Z,37.74
2018-04-11T11:30:55.010Z,37.73
2018-04-11T11:31:58.725Z,37.62
2018-04-11T11:33:02.325Z,37.85
2018-04-11T11:34:06.022Z,37.82
2018-04-11T11:35:09.835Z,37.90
2018-04-11T11:36:13.409Z,37.82
2018-04-11T11:37:17.134Z,37.99
2018-04-11T15:51:07.337Z,38.80
2018-04-11T15:52:10.815Z,38.58
2018-04-11T15:53:14.361Z,38.37
2018-04-11T15:54:18.882Z,38.24
2018-04-11T15:55:22.412Z,38.12
2018-04-11T15:56:26.506Z,38.05
2018-04-11T15:57:30.185Z,38.01
2018-04-11T15:58:33.717Z,37.82
2018-04-11T15:59:37.371Z,37.72
2018-04-11T16:00:40.977Z,37.61
2018-04-11T16:01:44.518Z,37.54
2018-04-11T16:02:48.469Z,37.56
2018-04-11T16:03:51.927Z,37.50
2018-04-11T16:04:55.467Z,37.53
2018-04-11T16:06:00.172Z,37.56
2018-04-11T16:07:03.876Z,37.43
2018-04-11T16:08:07.398Z,37.48
2018-04-11T16:09:11.248Z,37.41
2018-04-11T16:10:14.905Z,37.35
2018-04-11T16:11:18.431Z,37.43
2018-04-11T16:12:22.064Z,37.37
2018-04-11T16:13:26.725Z,37.23
2018-04-11T16:14:30.314Z,37.23
2018-04-11T16:15:34.237Z,37.33
2018-04-11T16:16:37.678Z,37.31
2018-04-11T16:17:41.126Z,37.17
2018-04-11T16:18:44.845Z,37.17
2018-04-11T16:19:48.451Z,37.22
2018-04-11T16:20:51.999Z,37.33
2018-04-11T16:21:55.928Z,37.40
2018-04-11T16:22:59.580Z,37.33
2018-04-11T16:24:03.230Z,37.22
2018-04-11T16:25:07.012Z,37.13
2018-04-11T16:35:21.680Z,37.14
2018-04-11T16:36:25.200Z,37.13
2018-04-11T16:37:29.135Z,37.16
2018-04-11T16:38:34.670Z,37.08
2018-04-11T16:39:38.253Z,37.07
2018-04-11T16:40:42.212Z,37.12
2018-04-11T16:41:46.206Z,37.12
2018-04-11T16:42:49.804Z,37.05
2018-04-11T16:44:00.523Z,37.25
2018-04-11T16:45:04.316Z,37.03
2018-04-11T16:46:07.927Z,37.05
2018-04-11T16:47:11.850Z,37.23
2018-04-11T16:48:15.363Z,37.14
2018-04-11T16:49:21.168Z,37.30
2018-04-11T16:50:24.642Z,37.28
2018-04-11T16:51:28.148Z,37.22
2018-04-11T16:52:31.674Z,37.18
2018-04-11T16:53:35.274Z,37.13
2018-04-11T16:54:39.692Z,37.11
2018-04-11T16:55:43.301Z,37.23
2018-04-11T16:56:47.006Z,37.31
2018-04-11T16:57:50.554Z,37.24
2018-04-11T16:58:54.635Z,37.24
2018-04-11T16:59:59.126Z,37.20
2018-04-11T17:01:02.804Z,37.18
2018-04-11T17:02:06.380Z,37.18
2018-04-11T17:03:10.020Z,37.01
2018-04-11T17:04:13.707Z,37.00
2018-04-11T17:05:17.645Z,37.06
2018-04-11T17:06:21.180Z,37.01
2018-04-11T17:07:24.735Z,37.00
2018-04-11T17:08:30.927Z,37.05
2018-04-11T17:09:34.531Z,37.04
2018-04-11T17:10:38.122Z,37.08
2018-04-11T17:11:42.070Z,37.08
2018-04-11T17:12:45.635Z,37.05
2018-04-11T17:13:49.099Z,37.02
2018-04-11T17:14:52.672Z,37.17
2018-04-11T17:15:56.356Z,37.17
2018-04-11T17:17:00.037Z,37.15
2018-04-11T17:18:03.881Z,37.12
2018-04-11T17:19:07.525Z,37.18
2018-04-11T17:20:11.135Z,37.12
2018-04-11T17:21:14.726Z,37.01
2018-04-11T17:22:18.396Z,37.04
2018-04-11T17:23:21.957Z,37.06
2018-04-11T17:24:25.794Z,36.88
2018-04-11T17:25:29.409Z,36.91
2018-04-11T17:26:33.421Z,36.94
2018-04-11T17:27:37.103Z,37.08
2018-04-11T17:28:40.769Z,37.02
2018-04-11T17:29:44.336Z,37.09
2018-04-11T17:30:48.231Z,37.14
2018-04-11T17:31:51.866Z,37.15
2018-04-11T17:32:56.946Z,37.06
2018-04-11T17:34:00.610Z,37.23
2018-04-11T17:35:04.137Z,37.12
2018-04-11T17:36:07.633Z,37.12
2018-04-11T17:37:11.405Z,37.13
2018-04-11T17:38:14.890Z,37.15
2018-04-11T17:39:18.699Z,37.15
2018-04-11T17:40:22.330Z,37.12
2018-04-11T17:41:25.878Z,37.08
2018-04-11T17:42:29.427Z,37.06
2018-04-11T17:43:33.375Z,37.09
2018-04-11T17:44:37.068Z,37.07
2018-04-11T17:45:40.501Z,37.08
2018-04-11T17:46:43.937Z,37.06
2018-04-11T17:47:47.425Z,37.08
2018-04-11T17:48:50.857Z,37.01
2018-04-11T17:49:54.664Z,37.03
2018-04-11T17:50:58.265Z,36.92
2018-04-11T17:52:01.880Z,36.98
2018-04-11T17:53:05.446Z,37.02
2018-04-11T17:54:09.075Z,37.09
2018-04-11T17:55:12.591Z,37.05
2018-04-11T17:56:16.496Z,37.02
2018-04-11T17:57:20.089Z,37.02
2018-04-11T17:58:23.681Z,37.03
2018-04-11T17:59:27.398Z,37.02
2018-04-11T18:00:30.938Z,37.02
2018-04-11T18:01:34.513Z,37.05
2018-04-11T18:02:38.356Z,37.02
2018-04-11T18:03:41.836Z,37.00
2018-04-11T18:04:45.456Z,36.98
2018-04-11T18:05:48.986Z,36.97
2018-04-11T18:06:52.552Z,37.03
2018-04-11T18:07:56.139Z,37.01
2018-04-11T18:08:59.725Z,37.00
2018-04-11T18:10:03.284Z,37.05
2018-04-11T18:11:06.753Z,37.04
2018-04-11T18:12:10.641Z,37.07
2018-04-11T18:13:14.165Z,36.99
2018-04-11T18:14:17.681Z,36.97
2018-04-11T18:15:23.118Z,37.02
2018-04-11T18:16:27.713Z,36.99
2018-04-11T18:17:35.453Z,36.97
2018-04-11T18:18:40.718Z,36.86
2018-04-11T18:19:45.586Z,36.99
2018-04-11T20:16:49.272Z,37.20
2018-04-11T20:17:52.923Z,37.19
2018-04-11T20:18:56.704Z,37.22
2018-04-11T20:20:02.128Z,37.26
2018-04-11T20:21:07.347Z,37.21
2018-04-11T21:09:20.036Z,36.94
2018-04-11T21:10:23.552Z,37.01
2018-04-11T21:11:27.194Z,36.91
2018-04-11T21:12:30.808Z,36.96
2018-04-11T21:13:34.374Z,37.04
2018-04-11T21:14:37.858Z,37.03
2018-04-11T21:15:41.808Z,36.98
2018-04-11T21:16:45.563Z,37.03
2018-04-11T21:17:49.123Z,37.13
2018-04-11T21:18:52.831Z,37.06
2018-04-11T21:19:56.533Z,37.03
2018-04-11T21:21:00.092Z,37.04
2018-04-11T21:22:04.195Z,37.13
2018-04-11T21:23:07.780Z,37.06
2018-04-11T21:24:11.844Z,36.98
